sensor_id;sensor_type;location;lat;lon;timestamp;P1;durP1;ratioP1;P2;durP2;ratioP2
23614;SDS011;11985;49.404;7.734;2023-04-01T00:03:13;6.82;;;1.20;;
23614;SDS011;11985;49.404;7.734;2023-04-01T00:08:16;4.55;;;1.23;;
23614;SDS011;11985;49.404;7.734;2023-04-01T00:13:18;5.80;;;1.45;;
23614;SDS011;11985;49.404;7.734;2023-04-01T00:18:21;6.72;;;1.38;;
23614;SDS011;11985;49.404;7.734;2023-04-01T00:23:24;5.75;;;1.30;;
23614;SDS011;11985;49.404;7.734;2023-04-01T00:28:26;7.78;;;1.50;;
23614;SDS011;11985;49.404;7.734;2023-04-01T00:33:28;4.78;;;1.20;;
23614;SDS011;11985;49.404;7.734;2023-04-01T00:38:31;8.35;;;1.50;;
23614;SDS011;11985;49.404;7.734;2023-04-01T00:43:33;7.43;;;1.45;;
23614;SDS011;11985;49.404;7.734;2023-04-01T00:48:35;13.40;;;1.35;;
23614;SDS011;11985;49.404;7.734;2023-04-01T00:53:43;10.00;;;1.40;;
23614;SDS011;11985;49.404;7.734;2023-04-01T00:58:48;6.13;;;1.17;;
23614;SDS011;11985;49.404;7.734;2023-04-01T01:03:53;6.18;;;1.30;;
23614;SDS011;11985;49.404;7.734;2023-04-01T01:09:05;6.10;;;1.60;;
23614;SDS011;11985;49.404;7.734;2023-04-01T01:14:18;6.78;;;1.30;;
23614;SDS011;11985;49.404;7.734;2023-04-01T01:19:32;6.65;;;1.25;;
23614;SDS011;11985;49.404;7.734;2023-04-01T01:24:57;5.65;;;1.58;;
23614;SDS011;11985;49.404;7.734;2023-04-01T01:30:17;5.60;;;1.45;;
23614;SDS011;11985;49.404;7.734;2023-04-01T01:35:28;8.05;;;1.60;;
23614;SDS011;11985;49.404;7.734;2023-04-01T01:40:34;8.25;;;1.92;;
23614;SDS011;11985;49.404;7.734;2023-04-01T01:45:39;5.35;;;1.33;;
23614;SDS011;11985;49.404;7.734;2023-04-01T01:50:46;6.55;;;1.80;;
23614;SDS011;11985;49.404;7.734;2023-04-01T01:55:49;12.10;;;2.38;;
23614;SDS011;11985;49.404;7.734;2023-04-01T02:00:53;9.45;;;1.45;;
23614;SDS011;11985;49.404;7.734;2023-04-01T02:05:59;12.27;;;2.10;;
23614;SDS011;11985;49.404;7.734;2023-04-01T02:11:03;11.35;;;1.40;;
23614;SDS011;11985;49.404;7.734;2023-04-01T02:16:08;8.50;;;1.77;;
23614;SDS011;11985;49.404;7.734;2023-04-01T02:21:15;4.95;;;1.10;;
23614;SDS011;11985;49.404;7.734;2023-04-01T02:26:19;11.18;;;2.28;;
23614;SDS011;11985;49.404;7.734;2023-04-01T02:31:22;10.23;;;2.30;;
23614;SDS011;11985;49.404;7.734;2023-04-01T02:36:26;8.23;;;2.17;;
23614;SDS011;11985;49.404;7.734;2023-04-01T02:41:28;8.05;;;2.15;;
23614;SDS011;11985;49.404;7.734;2023-04-01T02:46:30;9.50;;;1.75;;
23614;SDS011;11985;49.404;7.734;2023-04-01T02:51:33;9.68;;;1.90;;
23614;SDS011;11985;49.404;7.734;2023-04-01T02:56:35;9.30;;;1.60;;
23614;SDS011;11985;49.404;7.734;2023-04-01T03:01:36;9.38;;;1.20;;
23614;SDS011;11985;49.404;7.734;2023-04-01T03:06:39;8.30;;;1.60;;
23614;SDS011;11985;49.404;7.734;2023-04-01T03:11:41;11.50;;;2.38;;
23614;SDS011;11985;49.404;7.734;2023-04-01T03:16:42;10.45;;;1.80;;
23614;SDS011;11985;49.404;7.734;2023-04-01T03:21:45;11.20;;;1.92;;
23614;SDS011;11985;49.404;7.734;2023-04-01T03:26:47;9.63;;;1.80;;
23614;SDS011;11985;49.404;7.734;2023-04-01T03:31:49;4.45;;;1.50;;
23614;SDS011;11985;49.404;7.734;2023-04-01T03:36:52;12.90;;;1.70;;
23614;SDS011;11985;49.404;7.734;2023-04-01T03:41:55;7.07;;;1.35;;
23614;SDS011;11985;49.404;7.734;2023-04-01T03:46:57;8.70;;;1.83;;
23614;SDS011;11985;49.404;7.734;2023-04-01T03:52:00;10.43;;;1.90;;
23614;SDS011;11985;49.404;7.734;2023-04-01T03:57:01;10.00;;;1.60;;
23614;SDS011;11985;49.404;7.734;2023-04-01T04:02:03;12.73;;;1.38;;
23614;SDS011;11985;49.404;7.734;2023-04-01T04:07:06;10.95;;;1.73;;
23614;SDS011;11985;49.404;7.734;2023-04-01T04:12:07;7.18;;;1.83;;
23614;SDS011;11985;49.404;7.734;2023-04-01T04:17:09;3.95;;;1.52;;
23614;SDS011;11985;49.404;7.734;2023-04-01T04:22:15;7.22;;;2.13;;
23614;SDS011;11985;49.404;7.734;2023-04-01T04:27:16;4.60;;;1.63;;
23614;SDS011;11985;49.404;7.734;2023-04-01T04:32:18;7.18;;;1.75;;
23614;SDS011;11985;49.404;7.734;2023-04-01T04:37:21;9.93;;;2.20;;
23614;SDS011;11985;49.404;7.734;2023-04-01T04:42:22;7.70;;;1.90;;
23614;SDS011;11985;49.404;7.734;2023-04-01T04:47:24;8.80;;;2.03;;
23614;SDS011;11985;49.404;7.734;2023-04-01T04:52:27;9.85;;;1.60;;
23614;SDS011;11985;49.404;7.734;2023-04-01T04:57:28;11.27;;;1.85;;
23614;SDS011;11985;49.404;7.734;2023-04-01T05:02:30;8.10;;;1.63;;
23614;SDS011;11985;49.404;7.734;2023-04-01T05:07:32;7.03;;;1.48;;
23614;SDS011;11985;49.404;7.734;2023-04-01T05:12:34;11.93;;;2.00;;
23614;SDS011;11985;49.404;7.734;2023-04-01T05:17:37;11.23;;;1.60;;
23614;SDS011;11985;49.404;7.734;2023-04-01T05:22:40;8.13;;;1.83;;
23614;SDS011;11985;49.404;7.734;2023-04-01T05:27:42;9.05;;;1.95;;
23614;SDS011;11985;49.404;7.734;2023-04-01T05:32:43;10.50;;;2.00;;
23614;SDS011;11985;49.404;7.734;2023-04-01T05:37:46;5.85;;;1.13;;
23614;SDS011;11985;49.404;7.734;2023-04-01T05:42:48;10.52;;;3.00;;
23614;SDS011;11985;49.404;7.734;2023-04-01T05:47:49;5.82;;;1.60;;
23614;SDS011;11985;49.404;7.734;2023-04-01T05:52:52;6.18;;;1.58;;
23614;SDS011;11985;49.404;7.734;2023-04-01T05:57:54;6.32;;;1.60;;
23614;SDS011;11985;49.404;7.734;2023-04-01T06:02:57;10.65;;;1.80;;
23614;SDS011;11985;49.404;7.734;2023-04-01T06:08:01;4.45;;;1.50;;
23614;SDS011;11985;49.404;7.734;2023-04-01T06:13:11;6.32;;;1.50;;
23614;SDS011;11985;49.404;7.734;2023-04-01T06:18:32;7.22;;;1.35;;
23614;SDS011;11985;49.404;7.734;2023-04-01T06:23:49;4.97;;;1.50;;
23614;SDS011;11985;49.404;7.734;2023-04-01T06:29:06;2.35;;;0.93;;
23614;SDS011;11985;49.404;7.734;2023-04-01T06:34:21;3.13;;;1.10;;
23614;SDS011;11985;49.404;7.734;2023-04-01T06:40:03;4.40;;;1.38;;
23614;SDS011;11985;49.404;7.734;2023-04-01T06:45:22;7.55;;;1.48;;
23614;SDS011;11985;49.404;7.734;2023-04-01T06:50:34;1.08;;;0.90;;
23614;SDS011;11985;49.404;7.734;2023-04-01T06:55:46;3.00;;;1.17;;
23614;SDS011;11985;49.404;7.734;2023-04-01T07:00:49;5.95;;;0.95;;
23614;SDS011;11985;49.404;7.734;2023-04-01T07:05:54;3.60;;;0.80;;
23614;SDS011;11985;49.404;7.734;2023-04-01T07:11:03;2.58;;;0.98;;
23614;SDS011;11985;49.404;7.734;2023-04-01T07:16:08;2.13;;;0.77;;
23614;SDS011;11985;49.404;7.734;2023-04-01T07:21:19;2.03;;;0.88;;
23614;SDS011;11985;49.404;7.734;2023-04-01T07:26:26;1.98;;;0.95;;
23614;SDS011;11985;49.404;7.734;2023-04-01T07:31:31;5.07;;;1.00;;
23614;SDS011;11985;49.404;7.734;2023-04-01T07:36:45;1.40;;;0.60;;
23614;SDS011;11985;49.404;7.734;2023-04-01T07:41:58;2.45;;;0.70;;
23614;SDS011;11985;49.404;7.734;2023-04-01T07:47:14;3.90;;;0.90;;
23614;SDS011;11985;49.404;7.734;2023-04-01T07:52:37;3.50;;;0.90;;
23614;SDS011;11985;49.404;7.734;2023-04-01T07:57:49;1.75;;;0.70;;
23614;SDS011;11985;49.404;7.734;2023-04-01T08:03:03;3.60;;;0.80;;
23614;SDS011;11985;49.404;7.734;2023-04-01T08:08:15;0.73;;;0.55;;
23614;SDS011;11985;49.404;7.734;2023-04-01T08:13:31;1.55;;;0.70;;
23614;SDS011;11985;49.404;7.734;2023-04-01T08:18:43;1.92;;;0.75;;
23614;SDS011;11985;49.404;7.734;2023-04-01T08:23:53;1.23;;;0.60;;
23614;SDS011;11985;49.404;7.734;2023-04-01T08:29:00;2.67;;;0.88;;
23614;SDS011;11985;49.404;7.734;2023-04-01T08:34:05;1.50;;;0.60;;
23614;SDS011;11985;49.404;7.734;2023-04-01T08:39:17;1.27;;;0.60;;
23614;SDS011;11985;49.404;7.734;2023-04-01T08:44:31;1.13;;;0.70;;
23614;SDS011;11985;49.404;7.734;2023-04-01T08:49:51;2.35;;;0.68;;
23614;SDS011;11985;49.404;7.734;2023-04-01T08:55:22;2.75;;;1.13;;
23614;SDS011;11985;49.404;7.734;2023-04-01T09:00:31;0.93;;;0.50;;
23614;SDS011;11985;49.404;7.734;2023-04-01T09:05:36;1.73;;;0.60;;
23614;SDS011;11985;49.404;7.734;2023-04-01T09:11:05;1.42;;;0.77;;
23614;SDS011;11985;49.404;7.734;2023-04-01T09:16:24;4.88;;;0.80;;
23614;SDS011;11985;49.404;7.734;2023-04-01T09:21:43;1.05;;;0.88;;
23614;SDS011;11985;49.404;7.734;2023-04-01T09:27:02;2.15;;;1.25;;
23614;SDS011;11985;49.404;7.734;2023-04-01T09:32:11;0.50;;;0.50;;
23614;SDS011;11985;49.404;7.734;2023-04-01T09:37:29;1.10;;;0.77;;
23614;SDS011;11985;49.404;7.734;2023-04-01T09:42:41;1.08;;;0.70;;
23614;SDS011;11985;49.404;7.734;2023-04-01T09:47:50;1.80;;;1.42;;
23614;SDS011;11985;49.404;7.734;2023-04-01T09:53:08;0.70;;;0.65;;
23614;SDS011;11985;49.404;7.734;2023-04-01T09:58:28;0.93;;;0.70;;
23614;SDS011;11985;49.404;7.734;2023-04-01T10:09:44;0.90;;;0.70;;
23614;SDS011;11985;49.404;7.734;2023-04-01T10:26:29;1.88;;;1.00;;
23614;SDS011;11985;49.404;7.734;2023-04-01T10:37:33;0.70;;;0.68;;
23614;SDS011;11985;49.404;7.734;2023-04-01T10:43:07;0.73;;;0.70;;
23614;SDS011;11985;49.404;7.734;2023-04-01T10:59:57;5.63;;;3.45;;
23614;SDS011;11985;49.404;7.734;2023-04-01T11:11:07;3.13;;;1.20;;
23614;SDS011;11985;49.404;7.734;2023-04-01T11:16:47;3.05;;;0.70;;
23614;SDS011;11985;49.404;7.734;2023-04-01T11:22:09;1.27;;;0.50;;
23614;SDS011;11985;49.404;7.734;2023-04-01T11:27:35;0.63;;;0.40;;
23614;SDS011;11985;49.404;7.734;2023-04-01T11:32:54;0.60;;;0.40;;
23614;SDS011;11985;49.404;7.734;2023-04-01T11:38:05;3.22;;;2.67;;
23614;SDS011;11985;49.404;7.734;2023-04-01T11:43:21;0.93;;;0.50;;
23614;SDS011;11985;49.404;7.734;2023-04-01T11:48:35;0.90;;;0.57;;
23614;SDS011;11985;49.404;7.734;2023-04-01T11:53:44;2.70;;;0.57;;
23614;SDS011;11985;49.404;7.734;2023-04-01T11:58:58;0.68;;;0.40;;
23614;SDS011;11985;49.404;7.734;2023-04-01T12:04:23;2.63;;;1.13;;
23614;SDS011;11985;49.404;7.734;2023-04-01T12:09:34;1.55;;;0.90;;
23614;SDS011;11985;49.404;7.734;2023-04-01T12:14:43;2.72;;;0.90;;
23614;SDS011;11985;49.404;7.734;2023-04-01T12:19:55;2.25;;;0.90;;
23614;SDS011;11985;49.404;7.734;2023-04-01T12:25:16;1.77;;;1.17;;
23614;SDS011;11985;49.404;7.734;2023-04-01T12:30:49;1.15;;;0.80;;
23614;SDS011;11985;49.404;7.734;2023-04-01T12:36:02;6.90;;;1.20;;
23614;SDS011;11985;49.404;7.734;2023-04-01T12:41:17;4.72;;;1.27;;
23614;SDS011;11985;49.404;7.734;2023-04-01T12:46:29;2.00;;;1.08;;
23614;SDS011;11985;49.404;7.734;2023-04-01T12:51:45;2.65;;;1.17;;
23614;SDS011;11985;49.404;7.734;2023-04-01T12:56:57;2.50;;;0.80;;
23614;SDS011;11985;49.404;7.734;2023-04-01T13:02:13;4.28;;;1.02;;
23614;SDS011;11985;49.404;7.734;2023-04-01T13:07:38;1.30;;;0.80;;
23614;SDS011;11985;49.404;7.734;2023-04-01T13:13:00;3.15;;;0.80;;
23614;SDS011;11985;49.404;7.734;2023-04-01T13:18:41;1.38;;;0.40;;
23614;SDS011;11985;49.404;7.734;2023-04-01T13:23:58;2.67;;;0.60;;
23614;SDS011;11985;49.404;7.734;2023-04-01T13:29:15;2.95;;;0.80;;
23614;SDS011;11985;49.404;7.734;2023-04-01T13:34:26;2.85;;;1.10;;
23614;SDS011;11985;49.404;7.734;2023-04-01T13:39:41;1.25;;;0.77;;
23614;SDS011;11985;49.404;7.734;2023-04-01T13:44:55;2.80;;;0.73;;
23614;SDS011;11985;49.404;7.734;2023-04-01T13:50:21;2.03;;;0.77;;
23614;SDS011;11985;49.404;7.734;2023-04-01T13:55:49;1.20;;;0.90;;
23614;SDS011;11985;49.404;7.734;2023-04-01T14:01:01;2.88;;;1.30;;
23614;SDS011;11985;49.404;7.734;2023-04-01T14:06:12;2.53;;;0.80;;
23614;SDS011;11985;49.404;7.734;2023-04-01T14:11:21;2.08;;;0.80;;
23614;SDS011;11985;49.404;7.734;2023-04-01T14:16:44;2.67;;;0.80;;
23614;SDS011;11985;49.404;7.734;2023-04-01T14:21:58;3.95;;;0.95;;
23614;SDS011;11985;49.404;7.734;2023-04-01T14:27:17;2.03;;;0.70;;
23614;SDS011;11985;49.404;7.734;2023-04-01T14:32:39;2.15;;;1.10;;
23614;SDS011;11985;49.404;7.734;2023-04-01T14:43:47;1.35;;;0.93;;
23614;SDS011;11985;49.404;7.734;2023-04-01T14:48:57;1.17;;;1.00;;
23614;SDS011;11985;49.404;7.734;2023-04-01T14:54:04;2.63;;;1.00;;
23614;SDS011;11985;49.404;7.734;2023-04-01T14:59:10;1.55;;;0.52;;
23614;SDS011;11985;49.404;7.734;2023-04-01T15:09:49;1.40;;;0.52;;
23614;SDS011;11985;49.404;7.734;2023-04-01T15:15:00;3.47;;;1.17;;
23614;SDS011;11985;49.404;7.734;2023-04-01T15:20:38;2.15;;;1.05;;
23614;SDS011;11985;49.404;7.734;2023-04-01T15:26:15;1.40;;;0.80;;
23614;SDS011;11985;49.404;7.734;2023-04-01T15:31:24;2.35;;;1.08;;
23614;SDS011;11985;49.404;7.734;2023-04-01T15:36:37;2.38;;;0.70;;
23614;SDS011;11985;49.404;7.734;2023-04-01T15:41:49;8.60;;;3.10;;
23614;SDS011;11985;49.404;7.734;2023-04-01T15:47:00;5.20;;;1.00;;
23614;SDS011;11985;49.404;7.734;2023-04-01T15:52:10;1.48;;;0.90;;
23614;SDS011;11985;49.404;7.734;2023-04-01T15:57:20;1.20;;;0.80;;
23614;SDS011;11985;49.404;7.734;2023-04-01T16:02:31;1.98;;;0.90;;
23614;SDS011;11985;49.404;7.734;2023-04-01T16:07:45;2.35;;;0.77;;
23614;SDS011;11985;49.404;7.734;2023-04-01T16:13:00;3.75;;;1.83;;
23614;SDS011;11985;49.404;7.734;2023-04-01T16:23:46;1.50;;;0.85;;
23614;SDS011;11985;49.404;7.734;2023-04-01T16:28:53;2.70;;;1.10;;
23614;SDS011;11985;49.404;7.734;2023-04-01T16:33:58;1.45;;;0.90;;
23614;SDS011;11985;49.404;7.734;2023-04-01T16:44:44;2.65;;;1.05;;
23614;SDS011;11985;49.404;7.734;2023-04-01T16:49:51;4.03;;;1.70;;
23614;SDS011;11985;49.404;7.734;2023-04-01T16:54:59;2.42;;;1.05;;
23614;SDS011;11985;49.404;7.734;2023-04-01T17:00:15;1.23;;;0.68;;
23614;SDS011;11985;49.404;7.734;2023-04-01T17:05:32;4.32;;;1.90;;
23614;SDS011;11985;49.404;7.734;2023-04-01T17:10:46;2.75;;;0.75;;
23614;SDS011;11985;49.404;7.734;2023-04-01T17:15:54;4.72;;;3.10;;
23614;SDS011;11985;49.404;7.734;2023-04-01T17:21:07;2.88;;;0.70;;
23614;SDS011;11985;49.404;7.734;2023-04-01T17:26:16;1.85;;;1.00;;
23614;SDS011;11985;49.404;7.734;2023-04-01T17:31:37;2.60;;;0.80;;
23614;SDS011;11985;49.404;7.734;2023-04-01T17:36:51;4.00;;;1.27;;
23614;SDS011;11985;49.404;7.734;2023-04-01T17:42:06;4.78;;;2.03;;
23614;SDS011;11985;49.404;7.734;2023-04-01T17:47:18;2.20;;;1.05;;
23614;SDS011;11985;49.404;7.734;2023-04-01T17:52:27;2.22;;;1.20;;
23614;SDS011;11985;49.404;7.734;2023-04-01T17:57:39;1.55;;;1.20;;
23614;SDS011;11985;49.404;7.734;2023-04-01T18:02:49;2.17;;;0.93;;
23614;SDS011;11985;49.404;7.734;2023-04-01T18:08:12;1.98;;;0.80;;
23614;SDS011;11985;49.404;7.734;2023-04-01T18:13:32;4.93;;;1.00;;
23614;SDS011;11985;49.404;7.734;2023-04-01T18:18:50;3.25;;;1.20;;
23614;SDS011;11985;49.404;7.734;2023-04-01T18:24:00;7.32;;;3.88;;
23614;SDS011;11985;49.404;7.734;2023-04-01T18:29:17;23.05;;;11.27;;
23614;SDS011;11985;49.404;7.734;2023-04-01T18:34:31;3.22;;;2.00;;
23614;SDS011;11985;49.404;7.734;2023-04-01T18:39:46;4.35;;;2.67;;
23614;SDS011;11985;49.404;7.734;2023-04-01T18:44:55;3.05;;;1.40;;
23614;SDS011;11985;49.404;7.734;2023-04-01T18:50:02;2.08;;;1.20;;
23614;SDS011;11985;49.404;7.734;2023-04-01T18:55:18;3.45;;;1.30;;
23614;SDS011;11985;49.404;7.734;2023-04-01T19:00:32;2.88;;;0.70;;
23614;SDS011;11985;49.404;7.734;2023-04-01T19:05:38;4.20;;;1.08;;
23614;SDS011;11985;49.404;7.734;2023-04-01T19:10:44;3.35;;;1.33;;
23614;SDS011;11985;49.404;7.734;2023-04-01T19:15:56;3.67;;;1.40;;
23614;SDS011;11985;49.404;7.734;2023-04-01T19:21:01;5.97;;;1.38;;
23614;SDS011;11985;49.404;7.734;2023-04-01T19:26:11;4.60;;;1.58;;
23614;SDS011;11985;49.404;7.734;2023-04-01T19:31:22;2.75;;;1.30;;
23614;SDS011;11985;49.404;7.734;2023-04-01T19:36:36;3.47;;;1.75;;
23614;SDS011;11985;49.404;7.734;2023-04-01T19:41:48;7.22;;;2.00;;
23614;SDS011;11985;49.404;7.734;2023-04-01T19:47:01;2.67;;;1.40;;
23614;SDS011;11985;49.404;7.734;2023-04-01T19:52:12;2.75;;;1.40;;
23614;SDS011;11985;49.404;7.734;2023-04-01T19:57:22;2.08;;;1.50;;
23614;SDS011;11985;49.404;7.734;2023-04-01T20:02:50;2.42;;;1.30;;
23614;SDS011;11985;49.404;7.734;2023-04-01T20:08:04;2.90;;;1.45;;
23614;SDS011;11985;49.404;7.734;2023-04-01T20:13:13;3.13;;;1.50;;
23614;SDS011;11985;49.404;7.734;2023-04-01T20:18:25;5.70;;;1.95;;
23614;SDS011;11985;49.404;7.734;2023-04-01T20:23:38;3.20;;;1.70;;
23614;SDS011;11985;49.404;7.734;2023-04-01T20:28:43;4.90;;;1.63;;
23614;SDS011;11985;49.404;7.734;2023-04-01T20:34:06;8.43;;;1.83;;
23614;SDS011;11985;49.404;7.734;2023-04-01T20:45:10;3.42;;;1.80;;
23614;SDS011;11985;49.404;7.734;2023-04-01T20:50:25;4.55;;;1.92;;
23614;SDS011;11985;49.404;7.734;2023-04-01T20:55:39;8.00;;;2.10;;
23614;SDS011;11985;49.404;7.734;2023-04-01T21:01:01;3.20;;;2.03;;
23614;SDS011;11985;49.404;7.734;2023-04-01T21:06:17;6.23;;;2.30;;
23614;SDS011;11985;49.404;7.734;2023-04-01T21:11:30;5.23;;;2.23;;
23614;SDS011;11985;49.404;7.734;2023-04-01T21:16:41;4.93;;;2.53;;
23614;SDS011;11985;49.404;7.734;2023-04-01T21:22:02;4.07;;;2.55;;
23614;SDS011;11985;49.404;7.734;2023-04-01T21:27:21;4.13;;;2.20;;
23614;SDS011;11985;49.404;7.734;2023-04-01T21:37:53;4.38;;;2.83;;
23614;SDS011;11985;49.404;7.734;2023-04-01T21:43:10;7.33;;;2.40;;
23614;SDS011;11985;49.404;7.734;2023-04-01T21:48:35;4.65;;;2.45;;
23614;SDS011;11985;49.404;7.734;2023-04-01T21:54:00;5.60;;;2.40;;
23614;SDS011;11985;49.404;7.734;2023-04-01T21:59:25;3.22;;;2.17;;
23614;SDS011;11985;49.404;7.734;2023-04-01T22:04:58;3.72;;;2.22;;
23614;SDS011;11985;49.404;7.734;2023-04-01T22:10:12;4.88;;;2.22;;
23614;SDS011;11985;49.404;7.734;2023-04-01T22:15:24;3.97;;;2.38;;
23614;SDS011;11985;49.404;7.734;2023-04-01T22:20:46;6.60;;;2.70;;
23614;SDS011;11985;49.404;7.734;2023-04-01T22:25:54;3.55;;;2.20;;
23614;SDS011;11985;49.404;7.734;2023-04-01T22:31:01;5.18;;;2.55;;
23614;SDS011;11985;49.404;7.734;2023-04-01T22:36:06;5.80;;;2.03;;
23614;SDS011;11985;49.404;7.734;2023-04-01T22:41:19;5.38;;;2.08;;
23614;SDS011;11985;49.404;7.734;2023-04-01T22:46:36;5.18;;;2.40;;
23614;SDS011;11985;49.404;7.734;2023-04-01T22:51:45;4.65;;;2.70;;
23614;SDS011;11985;49.404;7.734;2023-04-01T22:56:53;3.80;;;2.45;;
23614;SDS011;11985;49.404;7.734;2023-04-01T23:01:58;5.00;;;2.05;;
23614;SDS011;11985;49.404;7.734;2023-04-01T23:07:06;3.72;;;2.15;;
23614;SDS011;11985;49.404;7.734;2023-04-01T23:12:26;5.93;;;2.10;;
23614;SDS011;11985;49.404;7.734;2023-04-01T23:23:14;8.73;;;2.30;;
23614;SDS011;11985;49.404;7.734;2023-04-01T23:33:52;10.35;;;2.72;;
23614;SDS011;11985;49.404;7.734;2023-04-01T23:38:55;3.40;;;2.03;;
23614;SDS011;11985;49.404;7.734;2023-04-01T23:44:00;7.45;;;2.47;;
23614;SDS011;11985;49.404;7.734;2023-04-01T23:49:03;8.30;;;2.20;;
23614;SDS011;11985;49.404;7.734;2023-04-01T23:54:13;3.60;;;2.03;;
23614;SDS011;11985;49.404;7.734;2023-04-01T23:59:22;4.53;;;2.17;;
